createdAt,value
2018-11-05T00:01:50.570Z,41.70
2018-11-05T00:04:19.164Z,46.00
2018-11-05T00:06:47.840Z,47.80
2018-11-05T00:09:16.448Z,45.20
2018-11-05T00:11:45.055Z,54.47
2018-11-05T00:14:13.669Z,52.03
2018-11-05T00:16:42.238Z,54.83
2018-11-05T00:19:10.877Z,51.90
2018-11-05T00:21:39.476Z,50.23
2018-11-05T00:24:08.069Z,51.63
2018-11-05T00:26:36.685Z,58.70
2018-11-05T00:29:05.426Z,49.03
2018-11-05T00:31:34.084Z,56.73
2018-11-05T00:34:02.697Z,63.63
2018-11-05T00:36:31.279Z,63.70
2018-11-05T00:38:59.897Z,59.10
2018-11-05T00:41:28.488Z,57.50
2018-11-05T00:43:57.024Z,52.03
2018-11-05T00:46:25.740Z,51.17
2018-11-05T00:48:55.042Z,47.10
2018-11-05T00:51:23.621Z,48.57
2018-11-05T00:53:52.169Z,44.00
2018-11-05T00:56:20.723Z,44.40
2018-11-05T00:58:49.289Z,43.63
2018-11-05T01:01:17.955Z,57.83
2018-11-05T01:03:46.520Z,49.33
2018-11-05T01:06:15.139Z,55.20
2018-11-05T01:08:43.985Z,47.33
2018-11-05T01:11:12.702Z,45.77
2018-11-05T01:13:41.464Z,49.97
2018-11-05T01:16:10.185Z,44.77
2018-11-05T01:18:38.748Z,48.33
2018-11-05T01:21:07.659Z,49.60
2018-11-05T01:23:36.201Z,44.77
2018-11-05T01:26:04.783Z,51.30
2018-11-05T01:28:33.406Z,45.60
2018-11-05T01:31:02.198Z,43.23
2018-11-05T01:33:30.752Z,43.07
2018-11-05T01:35:59.306Z,46.93
2018-11-05T01:38:27.907Z,44.37
2018-11-05T01:40:56.508Z,50.13
2018-11-05T01:43:25.087Z,51.53
2018-11-05T01:45:53.694Z,49.67
2018-11-05T01:48:22.310Z,51.73
2018-11-05T01:50:50.909Z,51.97
2018-11-05T01:53:19.523Z,49.07
2018-11-05T01:55:48.186Z,59.23
2018-11-05T01:58:16.775Z,52.30
2018-11-05T02:00:45.355Z,50.93
2018-11-05T02:03:13.972Z,62.50
2018-11-05T02:05:42.565Z,63.97
2018-11-05T02:08:11.122Z,48.07
2018-11-05T02:10:39.763Z,48.33
2018-11-05T02:13:08.392Z,58.13
2018-11-05T02:15:37.066Z,46.47
2018-11-05T02:18:06.087Z,47.13
2018-11-05T02:20:34.696Z,44.70
2018-11-05T02:23:03.276Z,45.80
2018-11-05T02:25:31.882Z,55.90
2018-11-05T02:28:00.460Z,57.93
2018-11-05T02:30:29.209Z,61.50
2018-11-05T02:32:57.789Z,47.10
2018-11-05T02:35:26.368Z,50.80
2018-11-05T02:37:54.924Z,48.03
2018-11-05T02:40:23.504Z,50.13
2018-11-05T02:42:52.047Z,58.47
2018-11-05T02:45:21.256Z,54.27
2018-11-05T02:47:49.912Z,49.70
2018-11-05T02:50:18.483Z,47.00
2018-11-05T02:52:47.673Z,45.93
2018-11-05T02:55:16.242Z,52.87
2018-11-05T02:57:44.908Z,52.37
2018-11-05T03:00:15.964Z,50.80
2018-11-05T03:02:44.561Z,70.63
2018-11-05T03:05:15.264Z,47.37
2018-11-05T03:07:44.593Z,51.47
2018-11-05T03:10:13.506Z,63.87
2018-11-05T03:12:42.829Z,48.60
2018-11-05T03:15:13.752Z,52.03
2018-11-05T03:17:42.392Z,55.93
2018-11-05T03:20:12.558Z,52.53
2018-11-05T03:22:41.842Z,66.93
2018-11-05T03:25:10.442Z,53.73
2018-11-05T03:27:39.478Z,49.43
2018-11-05T03:30:12.245Z,54.40
2018-11-05T03:32:40.851Z,54.53
2018-11-05T03:35:10.634Z,51.20
2018-11-05T03:37:39.895Z,53.13
2018-11-05T03:40:09.351Z,50.93
2018-11-05T03:42:38.360Z,51.20
2018-11-05T03:45:08.406Z,51.60
2018-11-05T03:47:37.079Z,49.60
2018-11-05T03:50:07.931Z,48.30
2018-11-05T03:52:36.783Z,51.10
2018-11-05T03:55:06.033Z,46.83
2018-11-05T03:57:35.523Z,46.20
2018-11-05T04:00:04.620Z,47.33
2018-11-05T04:02:33.258Z,46.17
2018-11-05T04:05:01.853Z,47.17
2018-11-05T04:07:30.489Z,48.37
2018-11-05T04:09:59.045Z,51.47
2018-11-05T04:12:27.680Z,48.53
2018-11-05T04:14:56.258Z,52.50
2018-11-05T04:17:25.022Z,54.40
2018-11-05T04:19:53.584Z,55.67
2018-11-05T04:22:22.154Z,56.67
2018-11-05T04:24:50.739Z,56.87
2018-11-05T04:27:19.362Z,55.73
2018-11-05T04:29:47.954Z,56.60
2018-11-05T04:32:16.573Z,56.10
2018-11-05T04:34:45.162Z,53.20
2018-11-05T04:37:13.757Z,49.47
2018-11-05T04:39:42.382Z,51.93
2018-11-05T04:42:11.026Z,51.00
2018-11-05T04:44:39.657Z,51.10
2018-11-05T04:47:08.300Z,47.63
2018-11-05T04:49:36.873Z,48.10
2018-11-05T04:52:06.340Z,51.07
2018-11-05T04:54:34.957Z,48.40
2018-11-05T04:57:03.551Z,48.40
2018-11-05T04:59:32.228Z,47.63
2018-11-05T05:02:00.942Z,48.63
2018-11-05T05:04:29.673Z,49.77
2018-11-05T05:06:58.262Z,46.20
2018-11-05T05:09:26.868Z,48.13
2018-11-05T05:11:55.490Z,46.50
2018-11-05T05:14:24.074Z,47.67
2018-11-05T05:16:52.631Z,69.03
2018-11-05T05:19:21.208Z,45.93
2018-11-05T05:21:49.744Z,79.97
2018-11-05T05:24:18.305Z,51.40
2018-11-05T05:26:46.837Z,49.30
2018-11-05T05:29:15.418Z,50.10
2018-11-05T05:31:44.029Z,45.70
2018-11-05T05:34:13.929Z,48.20
2018-11-05T05:36:42.443Z,50.23
2018-11-05T05:39:11.519Z,48.53
2018-11-05T05:41:40.498Z,45.70
2018-11-05T05:44:09.143Z,46.47
2018-11-05T05:46:37.692Z,44.27
2018-11-05T05:49:06.328Z,41.73
2018-11-05T05:51:34.936Z,40.00
2018-11-05T05:54:03.505Z,42.90
2018-11-05T05:56:32.064Z,41.10
2018-11-05T05:59:00.723Z,42.03
2018-11-05T06:01:29.283Z,41.63
2018-11-05T06:03:58.386Z,40.80
2018-11-05T06:06:27.019Z,41.07
2018-11-05T06:08:55.526Z,41.77
2018-11-05T06:11:24.035Z,40.20
2018-11-05T06:13:52.623Z,41.07
2018-11-05T06:16:21.263Z,43.20
2018-11-05T06:18:49.869Z,44.33
2018-11-05T06:21:18.426Z,44.87
2018-11-05T06:23:46.980Z,45.10
2018-11-05T06:26:15.527Z,44.73
2018-11-05T06:28:44.200Z,42.80
2018-11-05T06:31:12.689Z,41.70
2018-11-05T06:33:41.238Z,45.70
2018-11-05T06:36:09.779Z,44.80
2018-11-05T06:38:38.367Z,44.07
2018-11-05T06:41:07.480Z,44.37
2018-11-05T06:43:36.065Z,43.47
2018-11-05T06:46:04.643Z,44.13
2018-11-05T06:48:33.213Z,43.57
2018-11-05T06:51:01.752Z,45.17
2018-11-05T06:53:30.333Z,44.67
2018-11-05T06:55:58.861Z,47.03
2018-11-05T06:58:27.423Z,43.80
2018-11-05T07:00:55.981Z,43.77
2018-11-05T07:03:24.522Z,43.23
2018-11-05T07:05:53.225Z,42.47
2018-11-05T07:08:22.389Z,41.37
2018-11-05T07:10:51.098Z,39.83
2018-11-05T07:13:19.636Z,42.03
2018-11-05T07:15:48.210Z,41.70
2018-11-05T07:18:16.783Z,41.57
2018-11-05T07:20:45.323Z,41.20
2018-11-05T07:23:13.824Z,42.53
2018-11-05T07:25:42.673Z,42.80
2018-11-05T07:28:11.237Z,43.00
2018-11-05T07:30:39.813Z,41.57
2018-11-05T07:33:08.460Z,39.63
2018-11-05T07:35:38.153Z,37.93
2018-11-05T07:38:06.746Z,34.43
2018-11-05T07:40:35.331Z,34.27
2018-11-05T07:43:04.536Z,35.97
2018-11-05T07:45:33.224Z,36.60
2018-11-05T07:48:01.796Z,38.80
2018-11-05T07:50:30.438Z,37.77
2018-11-05T07:52:59.026Z,38.20
2018-11-05T07:55:27.604Z,39.40
2018-11-05T07:57:56.196Z,38.43
2018-11-05T08:00:30.222Z,37.57
2018-11-05T08:02:58.883Z,40.00
2018-11-05T08:05:27.390Z,42.37
2018-11-05T08:07:55.965Z,40.73
2018-11-05T08:10:24.780Z,39.27
2018-11-05T08:12:53.353Z,40.97
2018-11-05T08:15:23.706Z,42.23
2018-11-05T08:17:52.978Z,40.67
2018-11-05T08:20:21.555Z,38.90
2018-11-05T08:22:50.076Z,39.87
2018-11-05T08:25:18.920Z,40.90
2018-11-05T08:27:47.708Z,41.20
2018-11-05T08:30:19.325Z,42.53
2018-11-05T08:32:47.887Z,40.00
2018-11-05T08:35:16.516Z,41.93
2018-11-05T08:37:46.244Z,38.77
2018-11-05T08:40:17.229Z,41.17
2018-11-05T08:42:46.796Z,41.43
2018-11-05T08:45:16.954Z,39.87
2018-11-05T08:47:45.551Z,40.57
2018-11-05T08:50:15.495Z,37.07
2018-11-05T08:52:44.331Z,38.40
2018-11-05T08:55:15.314Z,37.23
2018-11-05T08:57:44.257Z,38.73
2018-11-05T09:00:47.636Z,38.33
2018-11-05T09:03:16.187Z,38.03
2018-11-05T09:05:44.767Z,37.57
2018-11-05T09:08:13.589Z,36.33
2018-11-05T09:10:42.515Z,36.27
2018-11-05T09:13:10.787Z,34.40
2018-11-05T09:15:39.503Z,31.57
2018-11-05T09:18:08.105Z,32.33
2018-11-05T09:20:36.712Z,59.67
2018-11-05T09:23:05.731Z,36.63
2018-11-05T09:25:34.309Z,35.83
2018-11-05T09:28:02.956Z,40.47
2018-11-05T09:30:31.438Z,49.03
2018-11-05T09:32:59.999Z,37.00
2018-11-05T09:35:28.604Z,37.37
2018-11-05T09:37:57.123Z,36.03
2018-11-05T09:40:25.722Z,34.20
2018-11-05T09:42:54.591Z,32.93
2018-11-05T09:45:24.441Z,33.97
2018-11-05T09:47:53.019Z,34.83
2018-11-05T09:50:21.876Z,34.30
2018-11-05T09:52:50.476Z,33.03
2018-11-05T09:55:19.384Z,34.37
2018-11-05T09:57:47.959Z,31.00
2018-11-05T10:00:22.471Z,31.47
2018-11-05T10:03:00.144Z,32.57
2018-11-05T10:05:28.594Z,30.87
2018-11-05T10:07:57.086Z,31.27
2018-11-05T10:10:25.802Z,32.40
2018-11-05T10:12:54.582Z,31.00
2018-11-05T10:15:23.100Z,31.37
2018-11-05T10:17:51.634Z,31.83
2018-11-05T10:20:22.352Z,34.70
2018-11-05T10:22:51.313Z,31.90
2018-11-05T10:25:19.928Z,32.97
2018-11-05T10:27:49.461Z,32.00
2018-11-05T10:30:22.335Z,32.57
2018-11-05T10:32:50.990Z,31.33
2018-11-05T10:35:19.947Z,30.80
2018-11-05T10:37:48.481Z,29.80
2018-11-05T10:40:18.959Z,30.13
2018-11-05T10:42:48.333Z,32.20
2018-11-05T10:45:18.034Z,29.20
2018-11-05T10:47:46.601Z,32.13
2018-11-05T10:50:16.433Z,31.40
2018-11-05T10:52:46.461Z,30.67
2018-11-05T10:55:15.147Z,30.40
2018-11-05T10:57:44.257Z,32.03
2018-11-05T11:00:23.138Z,34.17
2018-11-05T11:02:57.118Z,32.67
2018-11-05T11:05:26.673Z,31.77
2018-11-05T11:07:56.448Z,31.33
2018-11-05T11:10:26.006Z,32.07
2018-11-05T11:12:54.604Z,31.80
2018-11-05T11:15:23.354Z,31.90
2018-11-05T11:17:52.730Z,32.93
2018-11-05T11:20:21.283Z,30.87
2018-11-05T11:22:49.874Z,32.17
2018-11-05T11:25:18.544Z,31.73
2018-11-05T11:27:47.153Z,32.30
2018-11-05T11:30:16.500Z,32.03
2018-11-05T11:32:45.884Z,32.07
2018-11-05T11:35:15.031Z,40.77
2018-11-05T11:37:43.847Z,33.60
2018-11-05T11:40:16.044Z,32.10
2018-11-05T11:42:45.685Z,49.63
2018-11-05T11:45:14.904Z,33.13
2018-11-05T11:47:43.486Z,32.03
2018-11-05T11:50:14.251Z,34.00
2018-11-05T11:52:42.852Z,57.03
2018-11-05T11:55:13.449Z,30.93
2018-11-05T11:57:42.365Z,36.50
2018-11-05T12:00:14.926Z,34.00
2018-11-05T12:02:43.875Z,30.53
2018-11-05T12:05:12.532Z,30.37
2018-11-05T12:07:41.067Z,32.50
2018-11-05T12:10:14.632Z,31.50
2018-11-05T12:12:43.590Z,31.07
2018-11-05T12:15:13.042Z,31.80
2018-11-05T12:17:42.179Z,31.23
2018-11-05T12:20:13.386Z,32.70
2018-11-05T12:22:42.529Z,30.30
2018-11-05T12:25:11.167Z,29.43
2018-11-05T12:27:39.816Z,31.83
2018-11-05T12:30:12.926Z,31.50
2018-11-05T12:32:41.486Z,30.93
2018-11-05T12:35:11.985Z,32.10
2018-11-05T12:37:42.169Z,31.67
2018-11-05T12:40:12.760Z,32.20
2018-11-05T12:42:41.644Z,31.37
2018-11-05T12:45:10.661Z,32.23
2018-11-05T12:47:40.061Z,31.97
2018-11-05T12:50:12.925Z,30.87
2018-11-05T12:52:45.506Z,32.17
2018-11-05T12:55:16.864Z,31.97
2018-11-05T12:57:46.835Z,31.77
2018-11-05T13:00:19.428Z,32.33
2018-11-05T13:02:53.527Z,31.53
2018-11-05T13:05:22.777Z,32.77
2018-11-05T13:07:51.432Z,32.00
2018-11-05T13:10:20.027Z,33.20
2018-11-05T13:12:48.655Z,32.50
2018-11-05T13:15:17.950Z,32.20
2018-11-05T13:17:46.511Z,31.63
2018-11-05T13:20:17.154Z,34.25
2018-11-05T13:22:45.868Z,31.07
2018-11-05T13:25:14.673Z,31.70
2018-11-05T13:27:45.410Z,33.33
2018-11-05T13:30:14.582Z,34.27
2018-11-05T13:32:43.688Z,32.37
2018-11-05T13:35:14.548Z,34.87
2018-11-05T13:37:43.704Z,34.17
2018-11-05T13:40:14.442Z,33.87
2018-11-05T13:42:43.267Z,35.60
2018-11-05T13:45:13.124Z,34.10
2018-11-05T13:47:42.372Z,32.90
2018-11-05T13:50:11.751Z,33.57
2018-11-05T13:52:40.532Z,33.77
2018-11-05T13:55:11.355Z,33.30
2018-11-05T13:57:40.427Z,33.47
2018-11-05T14:00:10.987Z,33.07
2018-11-05T14:02:39.650Z,32.83
2018-11-05T14:05:08.787Z,33.73
2018-11-05T14:07:37.538Z,42.10
2018-11-05T14:10:09.576Z,40.33
2018-11-05T14:12:38.193Z,35.13
2018-11-05T14:15:06.968Z,33.70
2018-11-05T14:17:35.502Z,32.77
2018-11-05T14:20:04.355Z,32.57
2018-11-05T14:22:32.908Z,33.70
2018-11-05T14:25:01.512Z,33.10
2018-11-05T14:27:30.133Z,34.53
2018-11-05T14:29:58.939Z,34.87
2018-11-05T14:32:27.158Z,41.53
2018-11-05T14:34:55.699Z,33.03
2018-11-05T14:37:24.208Z,32.33
2018-11-05T14:39:52.767Z,34.53
2018-11-05T14:42:21.322Z,36.13
2018-11-05T14:44:49.903Z,37.10
2018-11-05T14:47:18.431Z,35.23
2018-11-05T14:49:47.023Z,32.13
2018-11-05T14:52:15.560Z,35.40
2018-11-05T14:54:44.086Z,37.10
2018-11-05T14:57:12.687Z,36.50
2018-11-05T14:59:41.229Z,32.83
2018-11-05T15:02:15.006Z,32.97
2018-11-05T15:04:43.553Z,32.53
2018-11-05T15:07:12.137Z,32.93
2018-11-05T15:09:40.724Z,31.97
2018-11-05T15:12:09.257Z,32.13
2018-11-05T15:14:37.851Z,31.13
2018-11-05T15:17:07.643Z,35.20
2018-11-05T15:19:36.700Z,34.97
2018-11-05T15:22:05.361Z,35.13
2018-11-05T15:24:33.927Z,33.57
2018-11-05T15:27:02.449Z,36.30
2018-11-05T15:29:31.008Z,34.43
2018-11-05T15:31:59.552Z,34.80
2018-11-05T15:34:28.112Z,34.53
2018-11-05T15:36:56.964Z,35.07
2018-11-05T15:39:25.503Z,36.70
2018-11-05T15:41:54.030Z,37.20
2018-11-05T15:44:22.959Z,36.20
2018-11-05T15:46:51.596Z,36.30
2018-11-05T15:49:20.135Z,35.50
2018-11-05T15:51:48.855Z,37.13
2018-11-05T15:54:17.477Z,37.20
2018-11-05T15:56:45.946Z,38.63
2018-11-05T15:59:14.494Z,37.27
2018-11-05T16:01:43.072Z,36.13
2018-11-05T16:04:11.654Z,36.10
2018-11-05T16:06:40.209Z,33.83
2018-11-05T16:09:09.345Z,35.83
2018-11-05T16:11:37.917Z,36.33
2018-11-05T16:14:06.924Z,38.47
2018-11-05T16:16:35.735Z,35.40
2018-11-05T16:19:05.032Z,35.07
2018-11-05T16:21:33.709Z,34.00
2018-11-05T16:24:02.387Z,34.77
2018-11-05T16:26:30.984Z,34.33
2018-11-05T16:28:59.647Z,34.13
2018-11-05T16:31:28.213Z,34.47
2018-11-05T16:33:56.756Z,33.20
2018-11-05T16:36:25.324Z,33.40
2018-11-05T16:38:53.899Z,35.87
2018-11-05T16:41:22.507Z,36.73
2018-11-05T16:43:51.018Z,34.37
2018-11-05T16:46:19.784Z,36.97
2018-11-05T16:48:48.315Z,35.43
2018-11-05T16:51:16.855Z,36.13
2018-11-05T16:53:45.624Z,37.97
2018-11-05T16:56:14.119Z,36.63
2018-11-05T16:58:43.041Z,37.73
2018-11-05T17:01:11.854Z,36.73
2018-11-05T17:03:40.132Z,42.13
2018-11-05T17:06:08.704Z,40.30
2018-11-05T17:08:37.234Z,40.03
2018-11-05T17:11:07.357Z,36.87
2018-11-05T17:13:36.898Z,37.63
2018-11-05T17:16:06.059Z,40.67
2018-11-05T17:18:34.678Z,38.10
2018-11-05T17:21:03.258Z,37.97
2018-11-05T17:23:31.770Z,40.03
2018-11-05T17:26:00.439Z,41.63
2018-11-05T17:28:28.950Z,38.70
2018-11-05T17:30:57.556Z,40.33
2018-11-05T17:33:26.133Z,37.93
2018-11-05T17:35:54.689Z,39.67
2018-11-05T17:38:23.271Z,37.30
2018-11-05T17:40:51.824Z,45.60
2018-11-05T17:43:20.373Z,40.67
2018-11-05T17:45:48.918Z,38.67
2018-11-05T17:48:17.459Z,48.57
2018-11-05T17:50:46.104Z,47.07
2018-11-05T17:53:15.230Z,40.43
2018-11-05T17:55:43.803Z,40.30
2018-11-05T17:58:12.370Z,40.83
2018-11-05T18:00:41.069Z,43.37
2018-11-05T18:03:09.593Z,42.83
2018-11-05T18:05:38.195Z,41.20
2018-11-05T18:08:06.731Z,40.50
2018-11-05T18:10:35.345Z,39.07
2018-11-05T18:13:03.947Z,42.03
2018-11-05T18:15:32.577Z,41.13
2018-11-05T18:18:01.094Z,42.33
2018-11-05T18:20:29.698Z,48.60
2018-11-05T18:22:58.249Z,41.23
2018-11-05T18:25:26.879Z,41.47
2018-11-05T18:27:55.407Z,43.27
2018-11-05T18:30:24.030Z,41.20
2018-11-05T18:32:52.567Z,43.07
2018-11-05T18:35:21.217Z,42.23
2018-11-05T18:37:51.387Z,43.90
2018-11-05T18:40:20.125Z,42.17
2018-11-05T18:42:48.718Z,41.80
2018-11-05T18:45:17.301Z,41.17
2018-11-05T18:47:45.893Z,42.03
2018-11-05T18:50:15.574Z,41.97
2018-11-05T18:52:44.692Z,43.10
2018-11-05T18:55:14.934Z,41.17
2018-11-05T18:57:43.501Z,40.57
2018-11-05T19:00:20.439Z,41.73
2018-11-05T19:02:50.185Z,49.07
2018-11-05T19:05:19.431Z,45.40
2018-11-05T19:07:48.469Z,43.63
2018-11-05T19:10:17.217Z,47.80
2018-11-05T19:12:46.075Z,44.03
2018-11-05T19:15:15.523Z,45.93
2018-11-05T19:17:45.007Z,45.30
2018-11-05T19:20:13.676Z,48.43
2018-11-05T19:22:42.950Z,43.97
2018-11-05T19:25:14.279Z,43.97
2018-11-05T19:27:44.121Z,43.43
2018-11-05T19:30:15.738Z,41.00
2018-11-05T19:32:45.827Z,40.50
2018-11-05T19:35:14.750Z,42.27
2018-11-05T19:37:44.427Z,41.17
2018-11-05T19:40:14.698Z,42.10
2018-11-05T19:42:44.938Z,39.47
2018-11-05T19:45:16.132Z,44.07
2018-11-05T19:47:47.239Z,43.23
2018-11-05T19:50:17.668Z,43.45
2018-11-05T19:52:47.310Z,42.77
2018-11-05T19:55:17.091Z,38.97
2018-11-05T19:57:47.425Z,40.30
2018-11-05T20:00:31.218Z,40.67
2018-11-05T20:03:01.285Z,40.83
2018-11-05T20:05:30.833Z,44.03
2018-11-05T20:08:00.247Z,42.70
2018-11-05T20:10:29.778Z,47.70
2018-11-05T20:12:58.850Z,49.77
2018-11-05T20:15:27.620Z,42.13
2018-11-05T20:17:56.795Z,42.37
2018-11-05T20:20:26.252Z,41.90
2018-11-05T20:22:54.846Z,41.60
2018-11-05T20:25:23.910Z,49.30
2018-11-05T20:27:52.504Z,45.57
2018-11-05T20:30:22.614Z,62.07
2018-11-05T20:32:52.734Z,46.73
2018-11-05T20:35:21.175Z,47.00
2018-11-05T20:37:50.039Z,45.50
2018-11-05T20:40:19.809Z,45.67
2018-11-05T20:42:49.666Z,43.37
2018-11-05T20:45:19.159Z,42.90
2018-11-05T20:47:47.732Z,41.33
2018-11-05T20:50:17.905Z,41.63
2018-11-05T20:52:46.695Z,46.40
2018-11-05T20:55:16.781Z,46.27
2018-11-05T20:57:45.717Z,41.90
2018-11-05T21:00:15.793Z,42.87
2018-11-05T21:02:44.868Z,42.83
2018-11-05T21:05:13.419Z,43.30
2018-11-05T21:07:42.901Z,41.30
2018-11-05T21:10:12.975Z,41.03
2018-11-05T21:12:42.384Z,44.30
2018-11-05T21:15:17.465Z,41.73
2018-11-05T21:17:47.365Z,44.17
2018-11-05T21:20:16.507Z,44.83
2018-11-05T21:22:45.613Z,45.57
2018-11-05T21:25:14.494Z,42.30
2018-11-05T21:27:43.767Z,41.23
2018-11-05T21:30:14.963Z,49.53
2018-11-05T21:32:43.531Z,44.10
2018-11-05T21:35:14.003Z,42.67
2018-11-05T21:37:43.061Z,41.47
2018-11-05T21:40:12.890Z,38.73
2018-11-05T21:42:41.508Z,40.70
2018-11-05T21:45:11.513Z,40.03
2018-11-05T21:47:40.762Z,39.50
2018-11-05T21:50:11.151Z,43.67
2018-11-05T21:52:40.721Z,40.03
2018-11-05T21:55:09.552Z,37.67
2018-11-05T21:57:40.052Z,36.20
2018-11-05T22:00:13.709Z,36.93
2018-11-05T22:02:47.529Z,39.13
2018-11-05T22:05:16.676Z,37.17
2018-11-05T22:07:45.652Z,40.80
2018-11-05T22:10:14.462Z,39.03
2018-11-05T22:12:43.992Z,38.23
2018-11-05T22:15:12.653Z,40.03
2018-11-05T22:17:42.109Z,41.07
2018-11-05T22:20:11.513Z,37.17
2018-11-05T22:22:40.600Z,38.03
2018-11-05T22:25:09.886Z,38.03
2018-11-05T22:27:38.617Z,36.43
2018-11-05T22:30:08.757Z,35.10
2018-11-05T22:32:37.683Z,45.40
2018-11-05T22:35:07.485Z,36.50
2018-11-05T22:37:36.397Z,39.00
2018-11-05T22:40:07.158Z,37.63
2018-11-05T22:42:35.728Z,37.10
2018-11-05T22:45:04.679Z,42.03
2018-11-05T22:47:33.381Z,38.63
2018-11-05T22:50:01.930Z,41.70
2018-11-05T22:52:30.544Z,37.57
2018-11-05T22:54:59.249Z,38.37
2018-11-05T22:57:27.892Z,36.13
2018-11-05T22:59:56.472Z,37.47
2018-11-05T23:02:25.064Z,35.43
2018-11-05T23:04:53.673Z,37.47
2018-11-05T23:07:22.203Z,36.67
2018-11-05T23:09:50.852Z,35.47
2018-11-05T23:12:19.394Z,40.57
2018-11-05T23:14:47.921Z,38.37
2018-11-05T23:17:16.504Z,42.37
2018-11-05T23:19:45.130Z,37.73
2018-11-05T23:22:13.707Z,36.50
2018-11-05T23:24:42.330Z,36.67
2018-11-05T23:27:11.148Z,40.40
2018-11-05T23:29:39.782Z,34.80
2018-11-05T23:32:08.554Z,34.83
2018-11-05T23:34:37.185Z,35.10
2018-11-05T23:37:08.691Z,33.00
2018-11-05T23:39:39.830Z,38.87
2018-11-05T23:42:08.472Z,33.73
2018-11-05T23:44:38.761Z,35.00
2018-11-05T23:47:07.411Z,34.43
2018-11-05T23:49:36.439Z,33.70
2018-11-05T23:52:05.033Z,34.13
2018-11-05T23:54:33.610Z,32.27
2018-11-05T23:57:02.147Z,33.93
2018-11-05T23:59:30.747Z,30.63
